createdAt,value
2023-02-07T00:28:00.642Z,1036.26
2023-02-07T00:58:00.586Z,1036.47
2023-02-07T01:28:00.749Z,1036.41
2023-02-07T01:58:00.600Z,1036.22
2023-02-07T02:28:00.697Z,1036.41
2023-02-07T02:58:02.150Z,1036.05
2023-02-07T03:28:00.671Z,1035.88
2023-02-07T03:58:00.624Z,1036.2
2023-02-07T04:28:00.669Z,1035.98
2023-02-07T04:58:00.627Z,1036.1
2023-02-07T05:28:00.686Z,1036.01
2023-02-07T05:58:00.636Z,1036.48
2023-02-07T06:28:00.716Z,1036.84
2023-02-07T06:58:00.639Z,1037.2
2023-02-07T07:28:00.683Z,1037.46
2023-02-07T07:58:00.651Z,1037.36
2023-02-07T08:28:02.140Z,1037.35
2023-02-07T08:58:00.668Z,1037.13
2023-02-07T09:28:00.714Z,1037.09
2023-02-07T09:58:00.681Z,1037
2023-02-07T10:28:00.750Z,1037.04
2023-02-07T10:58:08.621Z,1036.74
2023-02-07T11:28:00.813Z,1036.38
2023-02-07T11:58:00.714Z,1036.28
2023-02-07T12:28:00.783Z,1036.24
2023-02-07T12:58:00.729Z,1036.07
2023-02-07T13:28:00.767Z,1035.86
2023-02-07T13:58:00.723Z,1036.06
2023-02-07T14:28:00.838Z,1035.95
2023-02-07T14:58:00.733Z,1035.69
2023-02-07T15:28:00.824Z,1035.73
2023-02-07T15:58:00.725Z,1035.85
2023-02-07T16:28:00.760Z,1036.29
2023-02-07T16:58:00.742Z,1036.5
2023-02-07T17:28:00.866Z,1036.42
2023-02-07T17:58:00.772Z,1036.58
2023-02-07T18:28:00.763Z,1036.66
2023-02-07T18:58:00.765Z,1036.77
2023-02-07T19:28:00.831Z,1036.72
2023-02-07T19:58:00.778Z,1036.77
2023-02-07T20:28:00.895Z,1036.87
2023-02-07T20:58:00.793Z,1036.74
2023-02-07T21:28:00.855Z,1036.74
2023-02-07T21:58:00.785Z,1036.65
2023-02-07T22:28:00.831Z,1036.43
2023-02-07T22:58:00.785Z,1036.48
2023-02-07T23:28:00.866Z,1036.41
2023-02-07T23:58:00.806Z,1036.39
